East White Plains, New York
Current Conditions -  °F | °C
As of 5:56 AM on Monday 22 Dec 2014 (Local Time) from KHPN Reporting Station
Overcast Overcast  
Wind Chill: 29°   Ceiling: 1000
Heat Index: 34°   Visibility: 8mi
Dew Point: 31°   Wind: 6mph
Humidity: 89%   Direction: 10°N
Pressure: 30.29"   Gusts: NA
Location:  41.0555°N, 73.7433°W
Report Text: KHPN 221056Z 01005KT 8SM OVC010 01/M01 A3029 RMK AO2 SLP265 T00111006
Loading
Personal Weather Stations






























Interactive Weather Map New forecast layout! Learn more

10-Day Weather Forecast

Advertisements
Track Severe Weather on mobile